createdAt,value
2019-06-08T00:01:23.870Z,78.27
2019-06-08T00:03:55.654Z,79.33
2019-06-08T00:06:27.325Z,78.44
2019-06-08T00:08:58.996Z,79.89
2019-06-08T00:11:30.786Z,81.15
2019-06-08T00:14:02.553Z,81.22
2019-06-08T00:16:34.120Z,82.13
2019-06-08T00:19:05.794Z,81.55
2019-06-08T00:21:37.572Z,82.21
2019-06-08T00:24:09.350Z,83.19
2019-06-08T00:26:41.124Z,83.39
2019-06-08T00:29:14.080Z,82.50
2019-06-08T00:31:45.702Z,83.15
2019-06-08T00:34:18.472Z,83.19
2019-06-08T00:36:49.974Z,83.25
2019-06-08T00:39:21.539Z,83.63
2019-06-08T00:41:53.217Z,84.58
2019-06-08T00:44:25.663Z,84.09
2019-06-08T00:46:57.389Z,82.56
2019-06-08T00:49:29.146Z,82.30
2019-06-08T00:52:00.837Z,82.76
2019-06-08T00:54:32.612Z,80.19
2019-06-08T00:57:04.491Z,82.63
2019-06-08T00:59:36.279Z,83.95
2019-06-08T01:02:07.844Z,84.55
2019-06-08T01:04:39.619Z,84.20
2019-06-08T01:07:11.394Z,83.70
2019-06-08T01:09:43.168Z,84.45
2019-06-08T01:12:14.947Z,83.26
2019-06-08T01:14:46.723Z,83.34
2019-06-08T01:17:19.257Z,85.47
2019-06-08T01:19:50.899Z,85.75
2019-06-08T01:22:23.658Z,86.00
2019-06-08T01:24:55.368Z,85.98
2019-06-08T01:27:28.191Z,86.17
2019-06-08T01:29:59.844Z,84.84
2019-06-08T01:32:31.512Z,84.63
2019-06-08T01:35:03.288Z,84.69
2019-06-08T01:37:35.173Z,83.92
2019-06-08T01:40:07.969Z,83.35
2019-06-08T01:42:39.847Z,83.03
2019-06-08T01:45:13.634Z,83.87
2019-06-08T01:47:45.034Z,83.90
2019-06-08T01:50:16.713Z,84.91
2019-06-08T01:52:48.592Z,84.97
2019-06-08T01:55:20.366Z,85.22
2019-06-08T01:57:52.153Z,85.52
2019-06-08T02:00:39.337Z,85.84
2019-06-08T02:02:58.253Z,86.07
2019-06-08T02:05:30.326Z,86.61
2019-06-08T02:08:02.007Z,86.77
2019-06-08T02:10:34.889Z,84.93
2019-06-08T02:13:08.729Z,85.32
2019-06-08T02:15:39.697Z,85.93
2019-06-08T02:18:11.570Z,85.98
2019-06-08T02:20:43.449Z,86.87
2019-06-08T02:23:15.124Z,84.28
2019-06-08T02:25:46.903Z,82.86
2019-06-08T02:28:18.679Z,82.48
2019-06-08T02:30:50.457Z,80.41
2019-06-08T02:33:22.234Z,77.83
2019-06-08T02:35:54.007Z,75.80
2019-06-08T02:38:27.476Z,73.07
2019-06-08T02:40:59.194Z,72.24
2019-06-08T02:43:30.985Z,69.44
2019-06-08T02:46:02.651Z,67.50
2019-06-08T02:48:37.243Z,65.45
2019-06-08T02:51:08.062Z,64.02
2019-06-08T02:53:41.391Z,63.55
2019-06-08T02:56:16.508Z,63.96
2019-06-08T02:58:49.919Z,64.97
2019-06-08T03:01:23.023Z,64.51
2019-06-08T03:03:56.654Z,65.72
2019-06-08T03:06:32.305Z,64.59
2019-06-08T03:09:06.043Z,66.52
2019-06-08T03:11:39.000Z,68.90
2019-06-08T03:14:10.598Z,68.90
2019-06-08T03:16:43.358Z,69.77
2019-06-08T03:19:21.664Z,69.93
2019-06-08T03:21:48.494Z,66.44
2019-06-08T03:24:20.159Z,63.41
2019-06-08T03:26:51.533Z,60.90
2019-06-08T03:29:23.309Z,58.97
2019-06-08T03:31:56.947Z,55.61
2019-06-08T03:34:28.002Z,54.62
2019-06-08T03:36:59.678Z,54.03
2019-06-08T03:39:31.434Z,54.33
2019-06-08T03:42:03.523Z,55.25
2019-06-08T03:44:36.221Z,54.52
2019-06-08T03:47:07.893Z,54.05
2019-06-08T03:49:48.765Z,53.15
2019-06-08T03:52:12.572Z,56.74
2019-06-08T03:54:45.331Z,56.78
2019-06-08T03:57:17.345Z,57.99
2019-06-08T03:59:49.028Z,58.74
2019-06-08T04:02:20.800Z,59.00
2019-06-08T04:04:52.583Z,57.50
2019-06-08T04:07:24.353Z,59.17
2019-06-08T04:09:56.138Z,58.89
2019-06-08T04:12:27.706Z,59.42
2019-06-08T04:14:59.404Z,58.63
2019-06-08T04:17:31.157Z,57.87
2019-06-08T04:20:11.066Z,56.74
2019-06-08T04:22:40.373Z,57.97
2019-06-08T04:25:12.417Z,59.46
2019-06-08T04:27:44.798Z,55.79
2019-06-08T04:30:17.417Z,57.60
2019-06-08T04:32:49.742Z,56.11
2019-06-08T04:35:21.364Z,56.86
2019-06-08T04:37:53.136Z,58.28
2019-06-08T04:40:24.811Z,56.03
2019-06-08T04:42:58.028Z,57.17
2019-06-08T04:45:30.741Z,56.18
2019-06-08T04:48:02.611Z,55.79
2019-06-08T04:50:34.373Z,56.41
2019-06-08T04:53:05.948Z,56.56
2019-06-08T04:55:38.819Z,55.06
2019-06-08T04:58:10.419Z,55.81
2019-06-08T05:00:43.966Z,55.22
2019-06-08T05:03:15.300Z,54.77
2019-06-08T05:05:47.568Z,54.36
2019-06-08T05:08:19.714Z,54.17
2019-06-08T05:10:51.452Z,54.85
2019-06-08T05:13:23.020Z,53.35
2019-06-08T05:15:54.696Z,52.84
2019-06-08T05:18:26.490Z,52.37
2019-06-08T05:20:58.149Z,53.01
2019-06-08T05:23:29.925Z,52.00
2019-06-08T05:26:01.703Z,52.21
2019-06-08T05:28:33.479Z,53.34
2019-06-08T05:31:05.150Z,51.76
2019-06-08T05:33:36.824Z,51.38
2019-06-08T05:36:08.498Z,52.11
2019-06-08T05:38:41.535Z,50.76
2019-06-08T05:41:13.077Z,51.00
2019-06-08T05:43:45.601Z,49.92
2019-06-08T05:46:17.142Z,51.57
2019-06-08T05:48:50.083Z,51.44
2019-06-08T05:51:21.818Z,49.61
2019-06-08T05:53:53.599Z,51.08
2019-06-08T05:56:25.376Z,51.08
2019-06-08T05:58:57.146Z,48.97
2019-06-08T06:01:28.925Z,48.76
2019-06-08T06:04:00.497Z,49.44
2019-06-08T06:06:32.274Z,49.48
2019-06-08T06:09:05.179Z,48.75
2019-06-08T06:11:36.645Z,48.16
2019-06-08T06:14:08.222Z,48.00
2019-06-08T06:16:40.882Z,47.59
2019-06-08T06:19:12.587Z,47.75
2019-06-08T06:21:45.164Z,48.97
2019-06-08T06:24:16.554Z,45.63
2019-06-08T06:26:49.438Z,44.28
2019-06-08T06:29:20.821Z,45.03
2019-06-08T06:31:52.594Z,44.79
2019-06-08T06:34:24.375Z,43.96
2019-06-08T06:36:57.480Z,44.14
2019-06-08T06:39:28.951Z,42.07
2019-06-08T06:42:00.730Z,43.09
2019-06-08T06:44:32.515Z,40.89
2019-06-08T06:47:05.613Z,43.39
2019-06-08T06:49:36.974Z,41.57
2019-06-08T06:52:08.763Z,41.92
2019-06-08T06:54:40.430Z,42.64
2019-06-08T06:57:12.207Z,40.23
2019-06-08T06:59:45.531Z,39.98
2019-06-08T07:02:17.288Z,40.65
2019-06-08T07:04:49.884Z,40.00
2019-06-08T07:07:21.859Z,39.98
2019-06-08T07:09:54.929Z,41.10
2019-06-08T07:12:27.314Z,40.30
2019-06-08T07:15:00.815Z,40.91
2019-06-08T07:17:34.529Z,40.52
2019-06-08T07:20:07.937Z,41.23
2019-06-08T07:22:40.416Z,41.69
2019-06-08T07:25:13.727Z,41.03
2019-06-08T07:27:46.458Z,40.45
2019-06-08T07:30:18.209Z,42.80
2019-06-08T07:32:53.092Z,42.91
2019-06-08T07:35:29.820Z,41.91
2019-06-08T07:38:01.601Z,41.08
2019-06-08T07:40:40.534Z,40.44
2019-06-08T07:43:12.111Z,40.01
2019-06-08T07:45:44.190Z,39.99
2019-06-08T07:48:16.788Z,39.00
2019-06-08T07:50:48.569Z,40.97
2019-06-08T07:53:20.132Z,41.16
2019-06-08T07:55:51.806Z,38.66
2019-06-08T07:58:23.494Z,39.77
2019-06-08T08:01:02.370Z,39.50
2019-06-08T08:03:28.366Z,38.72
2019-06-08T08:05:59.938Z,37.45
2019-06-08T08:08:31.726Z,38.31
2019-06-08T08:11:03.390Z,36.94
2019-06-08T08:13:35.165Z,38.43
2019-06-08T08:16:06.940Z,37.41
2019-06-08T08:18:38.728Z,38.35
2019-06-08T08:21:21.791Z,38.38
2019-06-08T08:23:43.600Z,37.54
2019-06-08T08:26:15.393Z,37.89
2019-06-08T08:28:50.079Z,36.77
2019-06-08T08:31:20.057Z,36.92
2019-06-08T08:33:53.004Z,37.48
2019-06-08T08:36:24.733Z,38.61
2019-06-08T08:38:59.083Z,35.12
2019-06-08T08:41:29.928Z,38.01
2019-06-08T08:44:04.317Z,36.75
2019-06-08T08:46:34.811Z,38.64
2019-06-08T08:49:12.319Z,38.22
2019-06-08T08:51:42.552Z,36.90
2019-06-08T08:54:18.146Z,36.40
2019-06-08T08:56:52.235Z,36.91
2019-06-08T08:59:23.200Z,36.25
2019-06-08T09:01:55.082Z,37.85
2019-06-08T09:04:27.765Z,36.94
2019-06-08T09:07:05.550Z,37.63
2019-06-08T09:09:32.460Z,37.34
2019-06-08T09:12:04.688Z,37.52
2019-06-08T09:14:41.486Z,36.48
2019-06-08T09:17:13.419Z,37.11
2019-06-08T09:19:45.769Z,38.01
2019-06-08T09:22:21.746Z,36.95
2019-06-08T09:24:54.303Z,35.12
2019-06-08T09:27:28.079Z,37.57
2019-06-08T09:30:02.589Z,36.03
2019-06-08T09:32:32.779Z,36.39
2019-06-08T09:35:04.901Z,34.94
2019-06-08T09:37:37.557Z,35.38
2019-06-08T09:40:09.572Z,36.36
2019-06-08T09:42:40.894Z,35.94
2019-06-08T09:45:13.198Z,36.38
2019-06-08T09:47:44.648Z,35.17
2019-06-08T09:50:18.530Z,36.26
2019-06-08T09:53:02.412Z,36.62
2019-06-08T09:55:23.263Z,34.84
2019-06-08T09:57:59.002Z,35.05
2019-06-08T10:00:29.304Z,35.09
2019-06-08T10:03:02.946Z,34.70
2019-06-08T10:05:34.257Z,34.50
2019-06-08T10:08:05.993Z,34.88
2019-06-08T10:10:37.807Z,35.68
2019-06-08T10:13:10.171Z,36.28
2019-06-08T10:15:42.287Z,36.90
2019-06-08T10:18:13.853Z,37.07
2019-06-08T10:20:48.022Z,35.13
2019-06-08T10:23:30.585Z,35.33
2019-06-08T10:25:51.844Z,35.85
2019-06-08T10:28:23.639Z,37.18
2019-06-08T10:30:57.760Z,35.92
2019-06-08T10:33:28.328Z,35.70
2019-06-08T10:36:02.355Z,34.38
2019-06-08T10:38:33.482Z,33.32
2019-06-08T10:41:10.920Z,32.41
2019-06-08T10:43:38.714Z,32.46
2019-06-08T10:46:16.563Z,33.16
2019-06-08T10:48:43.452Z,36.05
2019-06-08T10:51:15.125Z,33.85
2019-06-08T10:53:52.576Z,32.45
2019-06-08T10:56:19.906Z,29.34
2019-06-08T10:58:51.481Z,31.86
2019-06-08T11:01:22.849Z,34.20
2019-06-08T11:03:54.619Z,32.23
2019-06-08T11:06:26.399Z,31.21
2019-06-08T11:09:01.601Z,28.17
2019-06-08T11:11:31.329Z,31.04
2019-06-08T11:14:05.418Z,28.55
2019-06-08T11:16:38.526Z,31.71
2019-06-08T11:19:12.967Z,35.11
2019-06-08T11:21:45.256Z,35.65
2019-06-08T11:24:24.191Z,33.88
2019-06-08T11:26:50.331Z,33.69
2019-06-08T11:29:22.110Z,32.24
2019-06-08T11:31:54.316Z,30.20
2019-06-08T11:34:25.872Z,33.62
2019-06-08T11:36:59.667Z,31.63
2019-06-08T11:39:31.974Z,33.34
2019-06-08T11:42:04.417Z,32.64
2019-06-08T11:44:38.999Z,31.67
2019-06-08T11:47:12.974Z,32.27
2019-06-08T11:49:43.685Z,32.60
2019-06-08T11:52:15.460Z,31.22
2019-06-08T11:54:52.187Z,32.58
2019-06-08T11:57:28.315Z,30.52
2019-06-08T11:59:59.804Z,28.68
2019-06-08T12:02:31.571Z,29.56
2019-06-08T12:05:03.801Z,30.67
2019-06-08T12:07:35.390Z,30.41
2019-06-08T12:10:09.208Z,29.95
2019-06-08T12:12:40.120Z,29.46
2019-06-08T12:15:13.334Z,30.49
2019-06-08T12:17:44.903Z,32.82
2019-06-08T12:20:19.802Z,30.61
2019-06-08T12:22:49.669Z,32.65
2019-06-08T12:25:21.444Z,30.31
2019-06-08T12:27:53.120Z,32.12
2019-06-08T12:30:26.489Z,29.76
2019-06-08T12:32:58.258Z,31.27
2019-06-08T12:35:30.187Z,27.61
2019-06-08T12:38:01.861Z,30.52
2019-06-08T12:40:33.637Z,30.06
2019-06-08T12:43:08.238Z,25.51
2019-06-08T12:45:38.730Z,29.89
2019-06-08T12:48:14.638Z,29.94
2019-06-08T12:50:43.303Z,29.04
2019-06-08T12:53:19.925Z,31.85
2019-06-08T12:55:49.000Z,30.21
2019-06-08T12:58:22.081Z,28.41
2019-06-08T13:00:53.576Z,29.37
2019-06-08T13:03:27.729Z,30.01
2019-06-08T13:05:58.361Z,30.93
2019-06-08T13:08:30.133Z,30.26
2019-06-08T13:11:01.908Z,27.87
2019-06-08T13:13:33.686Z,30.05
2019-06-08T13:16:05.462Z,30.20
2019-06-08T13:18:38.484Z,29.80
2019-06-08T13:21:22.242Z,29.86
2019-06-08T13:23:43.455Z,32.38
2019-06-08T13:26:21.553Z,32.79
2019-06-08T13:28:48.334Z,34.55
2019-06-08T13:31:24.150Z,34.53
2019-06-08T13:33:53.329Z,33.54
2019-06-08T13:36:27.099Z,31.86
2019-06-08T13:38:58.505Z,32.86
2019-06-08T13:41:30.386Z,35.86
2019-06-08T13:44:02.284Z,33.52
2019-06-08T13:46:34.046Z,29.19
2019-06-08T13:49:08.145Z,32.50
2019-06-08T13:51:38.827Z,32.93
2019-06-08T13:54:12.719Z,34.25
2019-06-08T13:56:44.529Z,34.50
2019-06-08T13:59:19.212Z,34.33
2019-06-08T14:01:49.207Z,33.30
2019-06-08T14:04:22.188Z,33.81
2019-06-08T14:06:54.086Z,34.30
2019-06-08T14:09:28.435Z,33.06
2019-06-08T14:11:59.585Z,33.44
2019-06-08T14:14:33.656Z,33.81
2019-06-08T14:17:04.363Z,33.12
2019-06-08T14:19:38.395Z,33.71
2019-06-08T14:22:10.686Z,34.42
2019-06-08T14:24:42.356Z,33.15
2019-06-08T14:27:14.133Z,32.88
2019-06-08T14:29:45.809Z,33.47
2019-06-08T14:32:19.144Z,33.62
2019-06-08T14:34:51.008Z,32.35
2019-06-08T14:37:22.917Z,32.00
2019-06-08T14:39:54.757Z,32.46
2019-06-08T14:42:29.890Z,35.33
2019-06-08T14:44:59.841Z,36.07
2019-06-08T14:47:31.573Z,36.95
2019-06-08T14:50:03.293Z,36.52
2019-06-08T14:52:35.069Z,37.30
2019-06-08T14:55:07.950Z,36.63
2019-06-08T14:57:40.261Z,38.61
2019-06-08T15:00:13.674Z,39.91
2019-06-08T15:02:49.667Z,41.63
2019-06-08T15:05:19.853Z,43.50
2019-06-08T15:07:51.566Z,45.70
2019-06-08T15:10:23.387Z,46.64
2019-06-08T15:12:57.569Z,47.28
2019-06-08T15:15:30.832Z,45.93
2019-06-08T15:18:04.808Z,45.48
2019-06-08T15:20:35.045Z,43.78
2019-06-08T15:23:08.262Z,41.54
2019-06-08T15:25:39.723Z,41.67
2019-06-08T15:28:11.398Z,39.88
2019-06-08T15:30:43.172Z,38.43
2019-06-08T15:33:14.949Z,38.42
2019-06-08T15:35:47.548Z,36.98
2019-06-08T15:38:20.865Z,37.78
2019-06-08T15:40:52.735Z,37.91
2019-06-08T15:43:24.561Z,35.64
2019-06-08T15:45:58.958Z,33.74
2019-06-08T15:48:30.992Z,33.96
2019-06-08T15:51:02.093Z,34.19
2019-06-08T15:53:34.166Z,33.42
2019-06-08T15:56:08.241Z,33.71
2019-06-08T15:58:40.482Z,31.55
2019-06-08T16:01:14.680Z,32.35
2019-06-08T16:03:45.068Z,31.56
2019-06-08T16:06:27.788Z,33.89
2019-06-08T16:09:04.545Z,36.03
2019-06-08T16:11:38.799Z,34.31
2019-06-08T16:14:16.549Z,34.18
2019-06-08T16:16:49.624Z,35.06
2019-06-08T16:19:29.609Z,36.11
2019-06-08T16:22:02.734Z,39.25
2019-06-08T16:24:36.231Z,44.38
2019-06-08T16:27:09.307Z,49.28
2019-06-08T16:29:41.902Z,49.90
2019-06-08T16:32:13.476Z,50.54
2019-06-08T16:34:45.212Z,50.56
2019-06-08T16:37:17.137Z,51.72
2019-06-08T16:39:48.804Z,51.50
2019-06-08T16:42:20.591Z,52.05
2019-06-08T16:44:52.357Z,51.81
2019-06-08T16:47:24.136Z,51.41
2019-06-08T16:49:56.117Z,49.95
2019-06-08T16:52:28.457Z,51.19
2019-06-08T16:55:00.489Z,52.26
2019-06-08T16:57:35.016Z,52.84
2019-06-08T17:00:29.936Z,51.73
2019-06-08T17:02:39.909Z,51.18
2019-06-08T17:05:11.762Z,49.63
2019-06-08T17:07:43.564Z,49.54
2019-06-08T17:10:15.571Z,50.41
2019-06-08T17:12:47.220Z,51.86
2019-06-08T17:15:19.011Z,51.38
2019-06-08T17:17:50.462Z,51.00
2019-06-08T17:20:22.346Z,52.94
2019-06-08T17:22:54.033Z,53.74
2019-06-08T17:25:25.797Z,53.30
2019-06-08T17:27:57.573Z,53.30
2019-06-08T17:30:29.350Z,54.39
2019-06-08T17:33:01.026Z,53.98
2019-06-08T17:35:33.719Z,53.98
2019-06-08T17:38:05.090Z,53.99
2019-06-08T17:40:37.992Z,55.53
2019-06-08T17:43:09.467Z,56.36
2019-06-08T17:45:44.722Z,55.17
2019-06-08T17:48:16.720Z,56.13
2019-06-08T17:50:48.475Z,56.85
2019-06-08T17:53:20.155Z,54.95
2019-06-08T17:55:51.835Z,55.78
2019-06-08T17:58:23.606Z,55.46
2019-06-08T18:00:55.280Z,55.83
2019-06-08T18:03:27.899Z,56.02
2019-06-08T18:05:59.645Z,57.59
2019-06-08T18:08:31.426Z,56.90
2019-06-08T18:11:03.094Z,56.96
2019-06-08T18:13:35.842Z,57.78
2019-06-08T18:16:08.360Z,57.16
2019-06-08T18:18:41.864Z,58.07
2019-06-08T18:21:13.414Z,60.53
2019-06-08T18:23:45.372Z,61.00
2019-06-08T18:26:17.355Z,60.00
2019-06-08T18:28:49.219Z,60.76
2019-06-08T18:31:21.091Z,61.24
2019-06-08T18:33:52.666Z,60.84
2019-06-08T18:36:24.239Z,60.75
2019-06-08T18:38:58.020Z,61.62
2019-06-08T18:41:28.926Z,61.98
2019-06-08T18:44:00.693Z,62.99
2019-06-08T18:46:32.664Z,63.39
2019-06-08T18:49:04.350Z,64.54
2019-06-08T18:51:37.742Z,64.44
2019-06-08T18:54:14.631Z,65.12
2019-06-08T18:56:44.562Z,64.93
2019-06-08T18:59:18.344Z,65.78
2019-06-08T19:01:50.057Z,62.94
2019-06-08T19:04:21.458Z,61.81
2019-06-08T19:06:54.249Z,61.34
2019-06-08T19:09:26.639Z,62.64
2019-06-08T19:11:58.111Z,62.58
2019-06-08T19:14:29.783Z,61.51
2019-06-08T19:17:01.458Z,62.20
2019-06-08T19:19:34.891Z,61.15
2019-06-08T19:22:08.680Z,62.60
2019-06-08T19:24:43.237Z,62.04
2019-06-08T19:27:12.963Z,61.55
2019-06-08T19:29:47.580Z,62.18
2019-06-08T19:32:19.069Z,62.46
2019-06-08T19:34:54.021Z,62.56
2019-06-08T19:37:24.065Z,61.18
2019-06-08T19:39:57.730Z,61.20
2019-06-08T19:42:39.973Z,61.57
2019-06-08T19:45:08.631Z,60.82
2019-06-08T19:47:38.839Z,61.70
2019-06-08T19:50:10.722Z,62.30
2019-06-08T19:52:45.454Z,62.96
2019-06-08T19:55:17.908Z,63.02
2019-06-08T19:57:50.731Z,63.16
2019-06-08T20:00:21.808Z,64.04
2019-06-08T20:02:55.128Z,63.60
2019-06-08T20:05:28.451Z,63.13
2019-06-08T20:07:59.493Z,63.82
2019-06-08T20:10:31.165Z,63.92
2019-06-08T20:13:02.734Z,63.91
2019-06-08T20:15:34.737Z,63.60
2019-06-08T20:18:06.700Z,64.03
2019-06-08T20:20:38.479Z,62.37
2019-06-08T20:23:10.260Z,63.19
2019-06-08T20:25:43.127Z,64.72
2019-06-08T20:28:17.192Z,62.87
2019-06-08T20:30:48.497Z,61.94
2019-06-08T20:33:20.637Z,62.58
2019-06-08T20:35:52.315Z,62.77
2019-06-08T20:38:35.090Z,62.22
2019-06-08T20:40:57.986Z,62.95
2019-06-08T20:43:30.327Z,63.18
2019-06-08T20:46:01.867Z,63.30
2019-06-08T20:48:33.752Z,63.44
2019-06-08T20:51:07.619Z,64.41
2019-06-08T20:53:39.130Z,64.77
2019-06-08T20:56:10.907Z,64.45
2019-06-08T20:58:43.839Z,65.56
2019-06-08T21:01:15.187Z,65.36
2019-06-08T21:03:51.606Z,64.95
2019-06-08T21:06:23.553Z,64.99
2019-06-08T21:08:57.478Z,66.67
2019-06-08T21:11:28.125Z,67.62
2019-06-08T21:13:59.805Z,69.67
2019-06-08T21:16:31.578Z,73.37
2019-06-08T21:19:03.352Z,74.47
2019-06-08T21:21:34.927Z,73.79
2019-06-08T21:24:07.867Z,73.00
2019-06-08T21:26:39.504Z,75.04
2019-06-08T21:29:11.584Z,73.90
2019-06-08T21:31:43.359Z,77.54
2019-06-08T21:34:15.145Z,81.27
2019-06-08T21:36:49.355Z,82.53
2019-06-08T21:39:20.124Z,75.86
2019-06-08T21:41:54.842Z,79.61
2019-06-08T21:44:24.977Z,78.48
2019-06-08T21:47:00.782Z,82.32
2019-06-08T21:49:30.194Z,83.28
2019-06-08T21:52:01.981Z,83.64
2019-06-08T21:54:33.643Z,88.32
2019-06-08T21:57:09.377Z,85.64
2019-06-08T21:59:39.350Z,88.54
2019-06-08T22:02:10.918Z,89.68
2019-06-08T22:04:42.594Z,89.72
2019-06-08T22:07:14.268Z,89.37
2019-06-08T22:09:47.972Z,89.69
2019-06-08T22:12:19.358Z,90.43
2019-06-08T22:14:51.383Z,90.36
2019-06-08T22:17:24.134Z,90.59
2019-06-08T22:19:58.259Z,90.91
2019-06-08T22:22:28.921Z,91.35
2019-06-08T22:25:01.117Z,88.37
2019-06-08T22:27:32.980Z,88.30
2019-06-08T22:30:12.571Z,89.79
2019-06-08T22:32:40.009Z,85.91
2019-06-08T22:35:11.685Z,87.82
2019-06-08T22:37:43.462Z,89.50
2019-06-08T22:40:17.546Z,86.20
2019-06-08T22:42:48.964Z,84.34
2019-06-08T22:45:20.549Z,83.76
2019-06-08T22:47:53.450Z,81.79
2019-06-08T22:50:27.498Z,81.47
2019-06-08T22:52:59.775Z,82.69
2019-06-08T22:55:31.727Z,83.08
2019-06-08T22:58:04.689Z,81.78
2019-06-08T23:00:51.802Z,82.64
2019-06-08T23:03:09.516Z,82.04
2019-06-08T23:05:41.080Z,80.82
2019-06-08T23:08:12.758Z,80.84
2019-06-08T23:10:44.543Z,80.43
2019-06-08T23:13:17.943Z,79.32
2019-06-08T23:15:49.520Z,79.49
2019-06-08T23:18:21.298Z,77.61
2019-06-08T23:20:52.877Z,76.89
2019-06-08T23:23:24.544Z,74.87
2019-06-08T23:25:58.926Z,75.39
2019-06-08T23:28:29.636Z,76.58
2019-06-08T23:31:15.131Z,77.95
2019-06-08T23:33:34.515Z,80.27
2019-06-08T23:36:44.507Z,79.41
2019-06-08T23:38:39.093Z,80.66
2019-06-08T23:41:10.869Z,80.70
2019-06-08T23:43:42.644Z,82.04
2019-06-08T23:46:14.421Z,82.55
2019-06-08T23:48:48.365Z,82.47
2019-06-08T23:51:19.003Z,81.55
2019-06-08T23:53:50.774Z,81.05
2019-06-08T23:56:22.548Z,81.54
2019-06-08T23:58:54.329Z,82.65
